KEWR/EWR METAR and TAF weather

Enter ICAO airport designator
Station Type Date Time Source
KEWR METAR 2020/09/27 02:51 UTC NOAA

KEWR 270251Z 09003KT 9SM SCT005 SCT032 BKN039 21/19 A3004 RMK AO2 SLP171 T02060194 50001


Station Type Date Time Source
KEWR Decoded METAR 2020/09/27 02:51 UTC NOAA

NEWARK INTERNATIONAL AIRPORT, NJ, United States (KEWR) 40-41N 74-10W 7M
Sep 26, 2020 - 10:51 PM EDT / 2020.09.27 0251 UTC
Wind: from the E (090 degrees) at 3 MPH (3 KT):0
Visibility: 9 mile(s):0
Sky conditions: mostly cloudy
Temperature: 69.1 F (20.6 C)
Dew Point: 66.9 F (19.4 C)
Relative Humidity: 92%
Pressure (altimeter): 30.04 in. Hg (1017 hPa)
Pressure tendency: 0.00 inches (0.1 hPa) higher than three hours ago
ob: KEWR 270251Z 09003KT 9SM SCT005 SCT032 BKN039 21/19 A3004 RMK AO2 SLP171 T02060194 50001
cycle: 3

Station Type Date Time Source
KEWR TAF 2020/09/27 03:45 UTC NOAA

TAF
AMD KEWR 270241Z 2703/2806 VRB04KT P6SM BKN007 OVC012
FM270500 VRB04KT 4SM BR OVC006
FM271400 09004KT P6SM BKN020
FM271700 10008KT P6SM SCT030
FM280000 09005KT P6SM BKN050

Example: see airport list